Time;durP1;ratioP1;P1;durP2;ratioP2;P2;SDS_P1;SDS_P2;PMS_P1;PMS_P2;Temp;Humidity;BMP_temperature;BMP_pressure;BME280_temperature;BME280_humidity;BME280_pressure;Samples;Min_cycle;Max_cycle;Signal;HPM_P1;HPM_P2
2023/03/10 00:00:49;;;;;;;25.58;13.60;;;;;;;1.80;100.00;98808.31;5052526;28;20051;-54
2023/03/10 00:03:14;;;;;;;26.85;13.07;;;;;;;1.78;100.00;98792.56;5063864;28;20028;-55
2023/03/10 00:05:39;;;;;;;24.23;12.68;;;;;;;1.75;100.00;98798.22;5072598;28;20036;-54
2023/03/10 00:08:05;;;;;;;25.58;12.85;;;;;;;1.72;100.00;98794.09;5072774;28;20116;-57
2023/03/10 00:10:31;;;;;;;23.83;12.45;;;;;;;1.73;100.00;98793.06;5072687;28;20081;-57
2023/03/10 00:12:56;;;;;;;21.67;11.30;;;;;;;1.73;100.00;98789.59;5071889;28;20028;-56
2023/03/10 00:15:22;;;;;;;24.90;12.23;;;;;;;1.73;100.00;98794.91;5073086;28;20030;-55
2023/03/10 00:17:49;;;;;;;21.23;11.60;;;;;;;1.72;100.00;98787.97;5072330;28;20501;-56
2023/03/10 00:20:14;;;;;;;23.08;11.45;;;;;;;1.72;100.00;98787.97;5072103;28;20127;-53
2023/03/10 00:22:40;;;;;;;22.60;12.10;;;;;;;1.73;100.00;98784.31;5072465;28;20107;-55
2023/03/10 00:25:06;;;;;;;26.52;12.32;;;;;;;1.75;100.00;98782.31;5072256;28;20036;-52
2023/03/10 00:27:32;;;;;;;23.05;11.55;;;;;;;1.72;100.00;98782.66;5071130;28;20036;-55
2023/03/10 00:29:58;;;;;;;21.73;11.30;;;;;;;1.72;100.00;98775.53;5072045;28;20024;-54
2023/03/10 00:32:23;;;;;;;24.80;12.35;;;;;;;1.72;100.00;98766.75;5072003;28;20032;-56
2023/03/10 00:34:48;;;;;;;21.92;11.57;;;;;;;1.70;100.00;98768.75;5072263;28;20115;-55
2023/03/10 00:37:14;;;;;;;25.17;12.40;;;;;;;1.68;100.00;98768.09;5072205;28;20479;-56
2023/03/10 00:39:39;;;;;;;27.00;12.90;;;;;;;1.74;100.00;98770.06;5072037;28;20040;-55
2023/03/10 00:42:05;;;;;;;24.13;12.23;;;;;;;1.75;100.00;98774.34;5072376;28;20048;-53
2023/03/10 00:44:30;;;;;;;24.20;13.02;;;;;;;1.74;100.00;98773.53;5072796;28;20037;-54
2023/03/10 00:46:55;;;;;;;28.42;13.27;;;;;;;1.75;100.00;98772.53;5071978;28;20477;-53
2023/03/10 00:49:21;;;;;;;28.02;14.07;;;;;;;1.75;100.00;98766.41;5071929;28;20089;-55
2023/03/10 00:51:46;;;;;;;26.95;13.35;;;;;;;1.78;100.00;98765.22;5072208;28;20021;-54
2023/03/10 00:54:11;;;;;;;28.30;12.82;;;;;;;1.79;100.00;98769.50;5072230;28;20107;-56
2023/03/10 00:56:37;;;;;;;25.30;13.30;;;;;;;1.75;100.00;98769.03;5071618;28;20336;-54
2023/03/10 00:59:02;;;;;;;24.75;12.90;;;;;;;1.77;100.00;98767.06;5072070;28;20038;-55
2023/03/10 01:01:36;;;;;;;22.90;12.20;;;;;;;1.81;100.00;98764.84;5072071;28;20428;-55
2023/03/10 01:04:04;;;;;;;27.13;13.93;;;;;;;1.78;100.00;98757.25;5071811;28;20440;-56
2023/03/10 01:06:30;;;;;;;27.98;13.20;;;;;;;1.74;100.00;98757.63;5071713;28;20021;-55
2023/03/10 01:08:56;;;;;;;26.75;13.05;;;;;;;1.72;100.00;98764.91;5071494;28;20023;-56
2023/03/10 01:11:24;;;;;;;25.80;13.23;;;;;;;1.76;100.00;98746.81;5071907;28;20028;-57
2023/03/10 01:13:50;;;;;;;26.27;12.63;;;;;;;1.77;100.00;98743.19;5071885;28;20056;-54
2023/03/10 01:16:15;;;;;;;24.80;12.48;;;;;;;1.71;100.00;98742.06;5071749;28;20459;-57
2023/03/10 01:18:42;;;;;;;27.40;13.70;;;;;;;1.75;100.00;98743.34;5071401;28;20048;-56
2023/03/10 01:21:14;;;;;;;25.20;13.30;;;;;;;1.74;100.00;98743.53;5071479;28;20036;-55
2023/03/10 01:23:40;;;;;;;26.50;13.18;;;;;;;1.77;100.00;98743.19;5070787;28;20107;-56
2023/03/10 01:26:05;;;;;;;27.60;13.48;;;;;;;1.76;100.00;98741.50;5071560;28;20535;-57
2023/03/10 01:28:31;;;;;;;26.95;13.82;;;;;;;1.77;100.00;98740.53;5070753;28;20107;-56
2023/03/10 01:30:56;;;;;;;27.15;13.68;;;;;;;1.75;100.00;98729.28;5071072;28;20108;-54
2023/03/10 01:33:21;;;;;;;30.27;14.48;;;;;;;1.74;100.00;98723.16;5070753;28;20028;-53
2023/03/10 01:35:47;;;;;;;29.55;14.00;;;;;;;1.75;100.00;98713.34;5071277;28;20032;-56
2023/03/10 01:38:12;;;;;;;26.02;12.95;;;;;;;1.75;100.00;98718.66;5070848;28;20063;-56
2023/03/10 01:40:38;;;;;;;29.35;14.02;;;;;;;1.75;100.00;98719.47;5070876;28;20028;-56
2023/03/10 01:43:18;;;;;;;27.17;13.88;;;;;;;1.76;100.00;98709.69;5070544;28;20048;-56
2023/03/10 01:45:44;;;;;;;28.05;14.68;;;;;;;1.73;100.00;98715.34;5070862;28;20082;-53
2023/03/10 01:48:10;;;;;;;27.58;13.43;;;;;;;1.76;100.00;98712.34;5070570;28;20055;-55
2023/03/10 01:50:35;;;;;;;25.65;13.68;;;;;;;1.74;100.00;98711.72;5070728;28;20036;-54
2023/03/10 01:53:01;;;;;;;28.88;14.48;;;;;;;1.73;100.00;98715.34;5070077;28;20425;-56
2023/03/10 01:55:30;;;;;;;31.23;15.07;;;;;;;1.70;100.00;98716.53;5071492;28;20430;-54
2023/03/10 01:57:55;;;;;;;31.40;14.10;;;;;;;1.73;100.00;98705.56;5070341;28;20375;-53
2023/03/10 02:00:22;;;;;;;30.88;14.25;;;;;;;1.67;100.00;98694.84;5070514;28;20086;-53
2023/03/10 02:02:56;;;;;;;24.45;12.98;;;;;;;1.74;100.00;98687.84;5070239;28;20047;-55
2023/03/10 02:05:22;;;;;;;27.83;13.25;;;;;;;1.71;100.00;98688.19;5070764;28;20036;-54
2023/03/10 02:07:48;;;;;;;28.95;14.13;;;;;;;1.70;100.00;98682.06;5063870;28;20119;-53
2023/03/10 02:10:14;;;;;;;29.05;14.65;;;;;;;1.69;100.00;98687.56;5070367;28;20424;-55
2023/03/10 02:12:40;;;;;;;32.08;14.63;;;;;;;1.69;100.00;98683.06;5070714;28;20082;-57
2023/03/10 02:15:06;;;;;;;27.15;13.85;;;;;;;1.70;100.00;98689.19;5069143;28;20025;-56
2023/03/10 02:17:32;;;;;;;27.08;14.30;;;;;;;1.69;100.00;98687.56;5070721;28;20077;-57
2023/03/10 02:20:04;;;;;;;29.80;14.20;;;;;;;1.72;100.00;98682.72;5070047;28;20472;-55
2023/03/10 02:22:29;;;;;;;27.70;14.00;;;;;;;1.70;100.00;98682.06;5070343;28;20031;-56
2023/03/10 02:25:10;;;;;;;27.05;13.32;;;;;;;1.69;100.00;98676.94;5068789;28;20111;-56
2023/03/10 02:27:36;;;;;;;26.25;13.95;;;;;;;1.63;100.00;98677.66;5067862;28;20032;-55
2023/03/10 02:30:07;;;;;;;26.80;13.57;;;;;;;1.66;100.00;98686.09;5069873;28;20032;-56
2023/03/10 02:32:39;;;;;;;27.42;14.02;;;;;;;1.71;100.00;98669.63;5069152;28;20119;-56
2023/03/10 02:35:05;;;;;;;28.35;13.40;;;;;;;1.71;100.00;98664.31;5070561;28;20448;-49
2023/03/10 02:37:32;;;;;;;23.58;12.68;;;;;;;1.71;100.00;98659.00;5063046;28;20081;-49
2023/03/10 02:39:57;;;;;;;26.83;12.93;;;;;;;1.67;100.00;98665.69;5070112;28;20028;-52
2023/03/10 02:42:26;;;;;;;24.30;12.75;;;;;;;1.69;100.00;98666.34;5070346;28;20047;-55
2023/03/10 02:44:52;;;;;;;25.58;12.05;;;;;;;1.72;100.00;98660.69;5050981;28;20025;-55
2023/03/10 02:47:18;;;;;;;25.88;13.80;;;;;;;1.69;100.00;98655.75;5062328;28;20029;-55
2023/03/10 02:49:44;;;;;;;26.00;12.60;;;;;;;1.65;100.00;98652.59;5070077;28;20039;-56
2023/03/10 02:52:24;;;;;;;24.52;12.32;;;;;;;1.69;100.00;98645.13;5070124;28;20021;-55
2023/03/10 02:54:50;;;;;;;24.17;12.65;;;;;;;1.68;100.00;98643.47;5068564;28;20112;-55
2023/03/10 02:57:15;;;;;;;23.67;11.98;;;;;;;1.66;100.00;98645.47;5069780;28;20115;-54
2023/03/10 02:59:40;;;;;;;26.10;12.60;;;;;;;1.59;100.00;98636.59;5069486;28;20095;-53
2023/03/10 03:02:06;;;;;;;22.55;12.63;;;;;;;1.60;100.00;98640.88;5070061;28;20052;-52
2023/03/10 03:04:31;;;;;;;25.95;13.40;;;;;;;1.65;100.00;98643.81;5072460;28;20054;-55
2023/03/10 03:06:57;;;;;;;26.27;11.95;;;;;;;1.72;100.00;98645.59;5074145;28;20437;-52
2023/03/10 03:09:22;;;;;;;26.80;13.60;;;;;;;1.74;100.00;98629.50;5073710;28;20070;-51
2023/03/10 03:11:47;;;;;;;26.27;12.90;;;;;;;1.72;100.00;98628.84;5074044;28;20031;-53
2023/03/10 03:14:13;;;;;;;24.85;12.25;;;;;;;1.72;100.00;98627.03;5073519;28;20028;-52
2023/03/10 03:16:38;;;;;;;27.00;13.43;;;;;;;1.73;100.00;98643.75;5073472;28;20032;-52
2023/03/10 03:19:03;;;;;;;27.15;12.93;;;;;;;1.73;100.00;98636.63;5073491;28;20099;-51
2023/03/10 03:21:30;;;;;;;24.77;13.00;;;;;;;1.74;100.00;98632.16;5074189;28;20031;-50
2023/03/10 03:23:55;;;;;;;23.45;12.20;;;;;;;1.72;100.00;98632.31;5073845;28;20035;-52
2023/03/10 03:26:25;;;;;;;27.58;12.90;;;;;;;1.70;100.00;98636.16;5074138;28;20049;-51
2023/03/10 03:28:51;;;;;;;25.10;12.45;;;;;;;1.68;100.00;98638.97;5073455;28;20079;-52
2023/03/10 03:31:22;;;;;;;24.65;13.00;;;;;;;1.75;100.00;98641.75;5073876;28;20423;-56
2023/03/10 03:33:47;;;;;;;24.65;11.27;;;;;;;1.71;100.00;98630.69;5073479;28;20035;-53
2023/03/10 03:36:13;;;;;;;23.52;11.30;;;;;;;1.66;100.00;98642.81;5074065;28;20032;-55
2023/03/10 03:38:38;;;;;;;26.65;12.63;;;;;;;1.57;100.00;98646.53;5074028;28;20108;-53
2023/03/10 03:41:05;;;;;;;25.60;12.00;;;;;;;1.65;100.00;98641.19;5073796;28;20036;-54
2023/03/10 03:43:30;;;;;;;27.27;13.57;;;;;;;1.68;100.00;98625.72;5073800;28;20020;-53
2023/03/10 03:45:56;;;;;;;25.25;11.77;;;;;;;1.67;100.00;98623.28;5073385;28;20047;-55
2023/03/10 03:48:21;;;;;;;26.00;12.75;;;;;;;1.63;100.00;98627.25;5073657;28;20383;-54
2023/03/10 03:50:47;;;;;;;25.23;12.82;;;;;;;1.65;100.00;98633.22;5072988;28;20560;-52
2023/03/10 03:53:13;;;;;;;22.48;11.70;;;;;;;1.66;100.00;98619.78;5060738;28;20344;-52
2023/03/10 03:55:38;;;;;;;24.77;11.88;;;;;;;1.68;100.00;98614.28;5079018;28;20028;-53
2023/03/10 03:58:03;;;;;;;23.65;11.30;;;;;;;1.67;100.00;98620.63;5075362;28;20029;-51
2023/03/10 04:00:29;;;;;;;22.33;11.27;;;;;;;1.68;100.00;98624.91;5071201;28;20036;-51
2023/03/10 04:02:55;;;;;;;28.10;12.88;;;;;;;1.69;100.00;98624.75;5072745;28;20027;-51
2023/03/10 04:05:20;;;;;;;25.58;12.23;;;;;;;1.69;100.00;98608.00;5076039;28;20036;-51
2023/03/10 04:07:47;;;;;;;23.38;11.30;;;;;;;1.67;100.00;98583.50;5072605;28;20044;-52
2023/03/10 04:10:14;;;;;;;29.80;12.82;;;;;;;1.67;100.00;98594.91;5072003;28;20032;-52
2023/03/10 04:12:39;;;;;;;26.95;13.15;;;;;;;1.64;100.00;98615.69;5083976;28;20028;-52
2023/03/10 04:15:07;;;;;;;29.00;13.50;;;;;;;1.65;100.00;98618.13;5080460;28;20127;-52
2023/03/10 04:17:32;;;;;;;29.17;12.80;;;;;;;1.59;100.00;98620.69;5072470;28;20024;-53
2023/03/10 04:19:58;;;;;;;26.60;12.55;;;;;;;1.66;100.00;98618.94;5072896;28;20359;-51
2023/03/10 04:22:23;;;;;;;27.67;12.75;;;;;;;1.73;100.00;98619.88;5072506;28;20466;-51
2023/03/10 04:24:48;;;;;;;26.17;12.77;;;;;;;1.78;100.00;98622.00;5069527;28;20024;-51
2023/03/10 04:27:14;;;;;;;25.38;12.20;;;;;;;1.78;100.00;98622.81;5069612;28;20115;-50
2023/03/10 04:29:39;;;;;;;25.50;11.77;;;;;;;1.77;100.00;98610.59;5070848;28;20107;-52
2023/03/10 04:32:05;;;;;;;26.00;12.50;;;;;;;1.73;100.00;98614.59;5068933;28;20075;-53
2023/03/10 04:34:31;;;;;;;27.15;12.60;;;;;;;1.71;100.00;98596.22;5070598;28;20544;-52
2023/03/10 04:36:56;;;;;;;29.10;13.18;;;;;;;1.71;100.00;98611.28;5071011;28;20513;-54
2023/03/10 04:39:21;;;;;;;25.25;12.35;;;;;;;1.66;100.00;98608.34;5070824;28;20028;-53
2023/03/10 04:41:47;;;;;;;27.13;12.32;;;;;;;1.66;100.00;98618.94;5070146;28;20351;-53
2023/03/10 04:44:12;;;;;;;25.95;11.50;;;;;;;1.65;100.00;98619.97;5068382;28;20028;-52
2023/03/10 04:46:37;;;;;;;27.77;13.25;;;;;;;1.73;100.00;98606.63;5070180;28;20403;-55
2023/03/10 04:49:03;;;;;;;33.13;12.73;;;;;;;1.79;100.00;98608.59;5068061;28;20028;-51
2023/03/10 04:51:28;;;;;;;30.70;12.27;;;;;;;1.76;100.00;98603.59;5069968;28;20079;-51
2023/03/10 04:53:55;;;;;;;36.90;12.40;;;;;;;1.77;100.00;98605.28;5069841;28;20029;-53
2023/03/10 04:56:21;;;;;;;28.88;12.38;;;;;;;1.73;100.00;98602.16;5069511;28;20398;-51
2023/03/10 04:58:46;;;;;;;25.92;11.43;;;;;;;1.72;100.00;98602.34;5069942;28;20032;-52
2023/03/10 05:01:13;;;;;;;32.40;12.18;;;;;;;1.73;100.00;98606.63;5069729;28;20032;-53
2023/03/10 05:03:39;;;;;;;29.60;11.45;;;;;;;1.72;100.00;98603.16;5069793;28;20040;-54
2023/03/10 05:06:11;;;;;;;27.40;11.23;;;;;;;1.69;100.00;98608.00;5069529;28;20139;-54
2023/03/10 05:08:36;;;;;;;26.13;11.10;;;;;;;1.67;100.00;98602.06;5069129;28;20033;-54
2023/03/10 05:11:05;;;;;;;27.20;12.23;;;;;;;1.69;100.00;98597.41;5069494;28;20043;-54
2023/03/10 05:13:31;;;;;;;27.90;12.07;;;;;;;1.68;100.00;98598.38;5069678;28;20322;-52
2023/03/10 05:15:56;;;;;;;26.73;11.25;;;;;;;1.70;100.00;98604.34;5069374;28;20025;-54
2023/03/10 05:18:21;;;;;;;30.25;11.90;;;;;;;1.65;100.00;98598.75;5068865;28;20052;-52
2023/03/10 05:20:54;;;;;;;27.77;11.68;;;;;;;1.67;100.00;98605.53;5068957;28;20033;-54
2023/03/10 05:23:20;;;;;;;25.50;11.65;;;;;;;1.64;100.00;98607.72;5067993;28;20372;-52
2023/03/10 05:25:46;;;;;;;27.23;10.68;;;;;;;1.69;100.00;98613.31;5061592;28;20040;-55
2023/03/10 05:28:11;;;;;;;25.05;10.50;;;;;;;1.69;100.00;98618.63;5061585;28;20487;-51
2023/03/10 05:30:37;;;;;;;33.20;11.90;;;;;;;1.73;100.00;98614.59;5069831;28;20038;-52
2023/03/10 05:33:02;;;;;;;31.95;11.48;;;;;;;1.81;100.00;98603.06;5071502;28;20074;-53
2023/03/10 05:35:27;;;;;;;27.25;10.30;;;;;;;1.78;100.00;98606.91;5070676;28;20036;-53
2023/03/10 05:37:53;;;;;;;27.45;11.07;;;;;;;1.79;100.00;98592.66;5071217;28;20028;-53
2023/03/10 05:40:18;;;;;;;32.90;10.75;;;;;;;1.75;100.00;98597.50;5065080;28;20467;-55
2023/03/10 05:42:45;;;;;;;29.83;11.90;;;;;;;1.73;100.00;98603.97;5070585;28;20143;-53
2023/03/10 05:45:10;;;;;;;28.67;11.23;;;;;;;1.76;100.00;98603.59;5065987;28;20016;-52
2023/03/10 05:47:36;;;;;;;26.13;10.10;;;;;;;1.76;100.00;98593.00;5071058;28;20394;-52
2023/03/10 05:50:01;;;;;;;29.55;10.23;;;;;;;1.79;100.00;98597.13;5070856;28;20105;-52
2023/03/10 05:52:27;;;;;;;29.17;11.27;;;;;;;1.79;100.00;98605.94;5069615;28;20028;-53
2023/03/10 05:54:52;;;;;;;32.97;11.88;;;;;;;1.77;100.00;98594.66;5069537;28;20031;-52
2023/03/10 05:57:18;;;;;;;31.33;11.35;;;;;;;1.79;100.00;98599.78;5069275;28;20029;-53
2023/03/10 05:59:43;;;;;;;32.40;11.48;;;;;;;1.78;100.00;98604.25;5067107;28;20531;-55
2023/03/10 06:02:08;;;;;;;31.75;10.85;;;;;;;1.83;100.00;98601.06;5070012;28;20043;-51
2023/03/10 06:04:34;;;;;;;33.20;11.15;;;;;;;1.78;100.00;98612.22;5073796;28;20261;-54
2023/03/10 06:06:59;;;;;;;27.05;10.65;;;;;;;1.79;100.00;98605.94;5063310;28;20029;-51
2023/03/10 06:09:26;;;;;;;29.58;11.77;;;;;;;1.78;100.00;98598.13;5069723;28;20421;-53
2023/03/10 06:11:51;;;;;;;39.28;12.00;;;;;;;1.75;100.00;98594.84;5070000;28;20091;-52
2023/03/10 06:14:17;;;;;;;30.42;10.85;;;;;;;1.75;100.00;98601.97;5050385;28;20546;-51
2023/03/10 06:16:48;;;;;;;33.50;12.25;;;;;;;1.75;100.00;98604.63;5056526;28;20025;-53
2023/03/10 06:19:13;;;;;;;28.17;11.52;;;;;;;1.75;100.00;98599.31;5069838;28;20466;-52
2023/03/10 06:21:38;;;;;;;29.27;10.90;;;;;;;1.78;100.00;98604.25;5070359;28;20025;-56
2023/03/10 06:24:04;;;;;;;29.10;11.02;;;;;;;1.74;100.00;98603.00;5068715;28;20027;-57
2023/03/10 06:26:29;;;;;;;31.48;11.52;;;;;;;1.76;100.00;98600.97;5069253;28;20694;-55
2023/03/10 06:28:54;;;;;;;29.60;10.43;;;;;;;1.74;100.00;98605.66;5069732;28;20405;-54
2023/03/10 06:31:23;;;;;;;30.45;10.13;;;;;;;1.78;100.00;98617.53;5069292;28;20028;-54
2023/03/10 06:33:48;;;;;;;;;;;;;;;1.79;100.00;98613.88;5050516;28;20496;-54
2023/03/10 06:36:15;;;;;;;25.48;8.93;;;;;;;1.76;100.00;98624.81;5064663;28;19980;-56
2023/03/10 06:38:40;;;;;;;29.00;10.02;;;;;;;1.76;100.00;98616.88;5067188;28;20027;-54
2023/03/10 06:41:06;;;;;;;22.35;8.88;;;;;;;1.80;100.00;98620.81;5068453;28;20024;-56
2023/03/10 06:43:32;;;;;;;34.58;10.82;;;;;;;1.79;100.00;98615.69;5067820;28;20028;-53
2023/03/10 06:45:58;;;;;;;28.02;9.45;;;;;;;1.79;100.00;98613.03;5069180;28;20040;-57
2023/03/10 06:48:23;;;;;;;26.55;10.60;;;;;;;1.79;100.00;98605.94;5069071;28;20035;-55
2023/03/10 06:50:49;;;;;;;23.80;8.60;;;;;;;1.80;100.00;98610.22;5060401;28;20514;-54
2023/03/10 06:53:37;;;;;;;24.75;7.97;;;;;;;1.83;100.00;98599.25;5068024;28;20036;-57
2023/03/10 06:56:07;;;;;;;20.15;7.57;;;;;;;1.81;100.00;98609.19;5050399;28;20120;-55
2023/03/10 06:58:34;;;;;;;20.35;6.75;;;;;;;1.78;100.00;98596.31;5061735;28;20435;-56
2023/03/10 07:01:00;;;;;;;21.42;7.88;;;;;;;1.74;100.00;98608.28;5062346;28;20055;-55
2023/03/10 07:03:27;;;;;;;20.33;8.00;;;;;;;1.75;100.00;98617.88;5062387;28;20115;-55
2023/03/10 07:05:53;;;;;;;21.17;8.30;;;;;;;1.75;100.00;98623.19;5062928;28;20074;-57
2023/03/10 07:08:19;;;;;;;22.75;8.15;;;;;;;1.72;100.00;98615.59;5063429;28;20066;-55
2023/03/10 07:10:44;;;;;;;20.27;8.10;;;;;;;1.75;100.00;98617.88;5063134;28;20028;-53
2023/03/10 07:13:14;;;;;;;19.70;7.82;;;;;;;1.77;100.00;98621.19;5062946;28;20441;-54
2023/03/10 07:15:39;;;;;;;22.15;8.05;;;;;;;1.78;100.00;98617.53;5062857;28;20375;-52
2023/03/10 07:18:05;;;;;;;20.40;7.55;;;;;;;1.81;100.00;98606.56;5059522;28;20074;-53
2023/03/10 07:20:30;;;;;;;20.42;7.03;;;;;;;1.79;100.00;98611.22;5055956;28;20028;-56
2023/03/10 07:22:55;;;;;;;18.92;6.72;;;;;;;1.82;100.00;98607.38;5060828;28;20025;-56
2023/03/10 07:25:21;;;;;;;18.23;6.90;;;;;;;1.78;100.00;98612.22;5063026;28;20120;-56
2023/03/10 07:27:46;;;;;;;16.77;7.28;;;;;;;1.79;100.00;98608.59;5063823;28;20028;-52
2023/03/10 07:30:12;;;;;;;17.80;7.35;;;;;;;1.80;100.00;98614.69;5062261;28;20039;-55
2023/03/10 07:32:37;;;;;;;16.77;6.80;;;;;;;1.84;100.00;98614.13;5062831;28;20406;-56
2023/03/10 07:35:03;;;;;;;17.50;6.35;;;;;;;1.86;100.00;98609.47;5057474;28;20021;-55
2023/03/10 07:37:28;;;;;;;20.92;7.70;;;;;;;1.87;100.00;98623.56;5055105;28;20029;-56
2023/03/10 07:39:54;;;;;;;22.70;7.22;;;;;;;1.92;100.00;98626.50;5061566;28;20177;-54
2023/03/10 07:42:20;;;;;;;15.45;7.05;;;;;;;1.96;100.00;98623.31;5061347;28;20376;-55
2023/03/10 07:44:45;;;;;;;17.27;6.88;;;;;;;1.95;100.00;98621.69;5062809;28;20037;-57
2023/03/10 07:47:11;;;;;;;17.33;6.72;;;;;;;1.95;100.00;98629.63;5063636;28;20025;-55
2023/03/10 07:49:36;;;;;;;12.45;6.72;;;;;;;1.95;100.00;98632.28;5060172;28;20264;-55
2023/03/10 07:52:01;;;;;;;17.13;7.32;;;;;;;1.97;100.00;98637.41;5065580;28;20073;-56
2023/03/10 07:54:27;;;;;;;13.00;6.53;;;;;;;1.96;100.00;98633.94;5066075;28;20482;-55
2023/03/10 07:56:52;;;;;;;20.45;6.57;;;;;;;1.96;100.00;98633.94;5065226;28;20440;-57
2023/03/10 07:59:18;;;;;;;13.90;6.38;;;;;;;2.00;100.00;98638.88;5066252;28;20524;-59
2023/03/10 08:01:43;;;;;;;15.25;5.65;;;;;;;1.94;100.00;98633.28;5064368;28;20458;-59
2023/03/10 08:04:11;;;;;;;16.48;6.45;;;;;;;1.93;100.00;98639.59;5065883;28;20105;-56
2023/03/10 08:06:36;;;;;;;16.50;6.18;;;;;;;1.90;100.00;98637.31;5066187;28;20028;-58
2023/03/10 08:09:02;;;;;;;13.93;6.53;;;;;;;1.92;100.00;98645.06;5062254;28;20505;-54
2023/03/10 08:11:27;;;;;;;13.93;6.18;;;;;;;1.92;100.00;98639.75;5052520;28;20028;-57
2023/03/10 08:13:53;;;;;;;16.98;6.30;;;;;;;1.94;100.00;98643.88;5064232;28;20051;-60
2023/03/10 08:16:20;;;;;;;13.60;6.63;;;;;;;1.94;100.00;98649.19;5066078;28;20025;-57
2023/03/10 08:18:45;;;;;;;13.68;6.50;;;;;;;1.95;100.00;98634.94;5066669;28;20051;-57
2023/03/10 08:21:11;;;;;;;11.68;5.65;;;;;;;2.01;100.00;98646.66;5065093;28;20032;-58
2023/03/10 08:23:37;;;;;;;13.20;5.57;;;;;;;1.97;100.00;98643.56;5060080;28;20102;-56
2023/03/10 08:26:08;;;;;;;11.68;6.18;;;;;;;1.97;100.00;98643.56;5061967;28;20052;-58
2023/03/10 08:28:34;;;;;;;13.90;5.95;;;;;;;1.98;100.00;98655.78;5066610;28;20085;-57
2023/03/10 08:31:09;;;;;;;11.50;5.43;;;;;;;1.98;100.00;98652.31;5063353;28;20024;-58
2023/03/10 08:33:35;;;;;;;13.77;6.82;;;;;;;1.93;100.00;98650.22;5054557;28;20040;-58
2023/03/10 08:36:05;;;;;;;16.88;6.38;;;;;;;1.95;100.00;98650.03;5062893;28;20028;-58
2023/03/10 08:38:31;;;;;;;16.27;5.68;;;;;;;1.93;100.00;98647.56;5064381;28;20111;-56
2023/03/10 08:40:56;;;;;;;11.15;5.78;;;;;;;1.95;100.00;98642.09;5061842;28;20373;-55
2023/03/10 08:43:22;;;;;;;11.82;5.78;;;;;;;1.97;100.00;98654.16;5064292;28;20024;-54
2023/03/10 08:45:47;;;;;;;12.25;6.22;;;;;;;1.94;100.00;98654.50;5054558;28;20498;-52
2023/03/10 08:48:12;;;;;;;11.55;5.65;;;;;;;1.97;100.00;98654.16;5064378;28;20454;-54
2023/03/10 08:50:38;;;;;;;12.18;5.30;;;;;;;1.97;100.00;98672.72;5064613;28;20131;-56
2023/03/10 08:53:03;;;;;;;11.07;5.53;;;;;;;1.96;100.00;98676.38;5066803;28;20757;-57
2023/03/10 08:55:29;;;;;;;10.18;5.18;;;;;;;1.96;100.00;98667.59;5066109;28;20051;-51
2023/03/10 08:57:54;;;;;;;11.93;6.20;;;;;;;1.96;100.00;98672.91;5064752;28;20112;-50
2023/03/10 09:00:20;;;;;;;10.63;5.60;;;;;;;1.92;100.00;98676.91;5066904;28;20458;-54
2023/03/10 09:02:45;;;;;;;9.25;5.45;;;;;;;2.00;100.00;98673.34;5067522;28;20044;-54
2023/03/10 09:05:11;;;;;;;8.43;5.40;;;;;;;1.97;100.00;98693.94;5064659;28;20509;-53
2023/03/10 09:07:36;;;;;;;8.77;4.60;;;;;;;1.97;100.00;98685.16;5064394;28;20735;-52
2023/03/10 09:10:04;;;;;;;9.52;5.03;;;;;;;1.94;100.00;98691.63;5062691;28;20066;-53
2023/03/10 09:12:29;;;;;;;14.45;5.43;;;;;;;1.89;100.00;98688.69;5066805;28;20034;-51
2023/03/10 09:14:54;;;;;;;10.75;4.88;;;;;;;1.89;100.00;98694.00;5064673;28;20601;-55
2023/03/10 09:17:20;;;;;;;7.25;4.38;;;;;;;1.89;100.00;98683.38;5062984;28;20048;-54
2023/03/10 09:19:46;;;;;;;10.93;4.85;;;;;;;1.89;100.00;98683.38;5068009;28;20144;-55
2023/03/10 09:22:11;;;;;;;7.82;4.45;;;;;;;1.86;100.00;98678.44;5066000;28;20090;-57
2023/03/10 09:24:37;;;;;;;6.35;3.65;;;;;;;1.82;100.00;98682.47;5064815;28;20417;-53
2023/03/10 09:27:02;;;;;;;6.80;3.90;;;;;;;1.83;100.00;98678.81;5066423;28;20021;-56
2023/03/10 09:29:28;;;;;;;11.20;4.90;;;;;;;1.83;100.00;98678.00;5065279;28;20577;-57
2023/03/10 09:31:53;;;;;;;7.68;4.18;;;;;;;1.86;100.00;98690.88;5065027;28;20117;-55
2023/03/10 09:34:19;;;;;;;8.65;4.05;;;;;;;1.89;100.00;98680.72;5064146;28;20479;-51
2023/03/10 09:36:44;;;;;;;6.30;4.05;;;;;;;1.86;100.00;98696.19;5064120;28;20079;-53
2023/03/10 09:39:10;;;;;;;6.18;3.85;;;;;;;1.80;100.00;98700.38;5061656;28;20124;-53
2023/03/10 09:41:38;;;;;;;6.93;3.83;;;;;;;1.81;100.00;98707.34;5066569;28;20039;-55
2023/03/10 09:44:18;;;;;;;6.25;3.97;;;;;;;1.85;100.00;98703.34;5064825;28;20024;-53
2023/03/10 09:47:05;;;;;;;7.45;4.03;;;;;;;1.89;100.00;98704.59;5065671;28;20048;-54
2023/03/10 09:49:30;;;;;;;8.50;4.70;;;;;;;1.88;100.00;98705.63;5064571;28;20094;-54
2023/03/10 09:51:56;;;;;;;9.38;4.28;;;;;;;1.97;100.00;98707.22;5062493;28;20024;-51
2023/03/10 09:54:50;;;;;;;7.90;4.65;;;;;;;2.00;100.00;98716.63;5062691;28;20036;-52
2023/03/10 09:57:19;;;;;;;7.13;4.00;;;;;;;1.95;100.00;98724.31;5063529;28;20539;-55
2023/03/10 09:59:44;;;;;;;;;;;;;;;1.96;100.00;98725.94;5064459;28;20029;-52
2023/03/10 10:02:22;;;;;;;8.38;4.60;;;;;;;2.01;100.00;98722.78;5049764;28;20360;-54
2023/03/10 10:04:48;;;;;;;;;;;;;;;1.96;100.00;98723.31;5046948;28;20028;-56
2023/03/10 10:07:16;;;;;;;7.07;3.60;;;;;;;1.88;100.00;98728.69;5061846;28;19912;-54
2023/03/10 10:09:45;;;;;;;5.15;2.90;;;;;;;1.91;100.00;98728.31;5057607;28;20551;-54
2023/03/10 10:12:16;;;;;;;6.85;3.63;;;;;;;1.88;100.00;98726.84;5051449;28;20227;-51
2023/03/10 10:14:42;;;;;;;9.35;4.55;;;;;;;1.92;100.00;98729.94;5049870;28;20765;-55
2023/03/10 10:17:07;;;;;;;8.13;4.72;;;;;;;1.94;100.00;98730.59;5060409;28;20040;-54
2023/03/10 10:19:33;;;;;;;7.80;4.35;;;;;;;1.97;100.00;98739.06;5062789;28;20048;-53
2023/03/10 10:22:09;;;;;;;8.07;4.03;;;;;;;2.07;100.00;98744.09;5059372;28;20037;-56
2023/03/10 10:24:35;;;;;;;9.73;4.93;;;;;;;2.16;100.00;98739.56;5045957;28;20036;-51
2023/03/10 10:27:00;;;;;;;7.10;3.88;;;;;;;2.24;100.00;98743.94;5055506;28;20055;-51
2023/03/10 10:29:35;;;;;;;8.38;3.47;;;;;;;2.29;100.00;98744.22;5060853;28;20013;-51
2023/03/10 10:32:07;;;;;;;9.75;3.95;;;;;;;2.24;100.00;98746.59;5059707;28;20083;-51
2023/03/10 10:34:34;;;;;;;6.60;4.22;;;;;;;2.22;100.00;98746.78;5062991;28;20021;-55
2023/03/10 10:37:00;;;;;;;6.20;3.72;;;;;;;2.19;100.00;98755.13;5061347;28;20432;-52
2023/03/10 10:39:30;;;;;;;10.30;3.72;;;;;;;2.16;100.00;98753.66;5063524;28;20107;-54
2023/03/10 10:42:11;;;;;;;7.07;3.92;;;;;;;2.16;100.00;98758.13;5047108;28;20036;-56
2023/03/10 10:44:41;;;;;;;6.63;3.75;;;;;;;2.14;100.00;98763.59;5063867;28;20043;-53
2023/03/10 10:47:19;;;;;;;6.10;3.00;;;;;;;2.12;100.00;98768.25;5061179;28;20089;-55
2023/03/10 10:49:45;;;;;;;7.07;2.90;;;;;;;2.15;100.00;98775.03;5057927;28;20029;-57
2023/03/10 10:52:22;;;;;;;5.18;3.25;;;;;;;2.16;100.00;98782.03;5060660;28;20062;-53
2023/03/10 10:54:57;;;;;;;5.32;2.92;;;;;;;2.18;100.00;98786.13;5061415;28;20386;-55
2023/03/10 10:57:26;;;;;;;4.68;2.80;;;;;;;2.20;100.00;98796.56;5056585;28;20028;-54
2023/03/10 10:59:51;;;;;;;5.30;3.30;;;;;;;2.19;100.00;98794.94;5061545;28;20132;-53
2023/03/10 11:02:19;;;;;;;4.35;2.88;;;;;;;2.23;100.00;98798.84;5060994;28;20590;-53
2023/03/10 11:04:45;;;;;;;;;;;;;;;2.30;100.00;98797.16;5064875;28;20141;-52
2023/03/10 11:07:24;;;;;;;3.88;2.60;;;;;;;2.34;100.00;98800.25;5063505;28;20011;-54
2023/03/10 11:09:49;;;;;;;4.75;2.83;;;;;;;2.33;100.00;98802.09;5064375;28;20167;-52
2023/03/10 11:12:20;;;;;;;4.40;2.70;;;;;;;2.42;100.00;98798.38;5066841;28;20496;-54
2023/03/10 11:15:06;;;;;;;3.55;2.40;;;;;;;2.51;100.00;98804.44;5061231;28;20047;-52
2023/03/10 11:17:53;;;;;;;4.90;2.55;;;;;;;2.44;100.00;98802.66;5060964;28;20035;-53
2023/03/10 11:20:43;;;;;;;3.13;2.00;;;;;;;2.42;100.00;98808.16;5040662;28;20485;-51